Uacc Ibn Sina — 9HTT9 — position and weather

sailwx.info

Track history (hours):
 
Tides and Currents Weather Stations Pressure Air Temp Water Temp Dewpoint Dewpoint Depression Visibility Wind Speed Wind Dir Waves Ship Positions

Uacc Ibn Sina

Last reported at 2017-Sep-28 18:49 UTC. Time now 2017-Oct-20 12:37 UTC.
Position N 42°14' E 005°24'.
Warning: this ship's position is 21 days out of date.

Length 228 m; draft 13.6 m.

Type: Ship (hazmat cat A). MMSI: 249497000.

Date/timePositionNaut miles runAvg speedWind from/ knotsBaromVisibWave heightAir tempDewpointWater temp
2017-Sep-28 18:49N 42°14' E 005°24'411.2
2017-Sep-28 18:30N 42°17' E 005°21'611.3
2017-Sep-28 18:00N 42°22' E 005°17'611.5
2017-Sep-28 17:31N 42°27' E 005°13'611.2
2017-Sep-28 16:56N 42°32' E 005°08'511.3
2017-Sep-28 16:30N 42°36' E 005°05'611.3
2017-Sep-28 16:01N 42°41' E 005°00'611.1
2017-Sep-28 15:31N 42°46' E 004°56'611.0
2017-Sep-28 15:01N 42°50' E 004°52'510.8
2017-Sep-28 14:31N 42°55' E 004°49'510.9
2017-Sep-28 14:01N 42°60' E 004°45'611.1
2017-Sep-28 13:30N 43°04' E 004°41'4 7.6
2017-Sep-28 13:01N 43°07' E 004°38'0 0.4
2017-Sep-28 12:30N 43°07' E 004°38'0 0.0
2017-Sep-28 12:01N 43°07' E 004°38'0 0.0
2017-Sep-28 11:31N 43°07' E 004°38'0 0.1
2017-Sep-28 11:00N 43°07' E 004°38'0 0.1
2017-Sep-28 10:31N 43°07' E 004°38'0 0.2
2017-Sep-28 10:00N 43°07' E 004°38'0 0.2
2017-Sep-28 09:30N 43°07' E 004°38'0 0.2
2017-Sep-28 09:01N 43°07' E 004°38'0 0.6
2017-Sep-28 08:30N 43°07' E 004°37'2 3.2
2017-Sep-28 08:01N 43°06' E 004°36'0 0.3
2017-Sep-28 07:30N 43°06' E 004°36'0 0.2
2017-Sep-28 07:01N 43°06' E 004°36'0 0.1
2017-Sep-28 06:30N 43°07' E 004°36'0 0.1
2017-Sep-28 06:00N 43°07' E 004°36'0 0.1
2017-Sep-28 05:30N 43°07' E 004°36'0 0.1
2017-Sep-28 05:01N 43°06' E 004°36'0 0.1
2017-Sep-28 04:31N 43°06' E 004°36'0 0.1
2017-Sep-28 04:01N 43°06' E 004°36'0 0.1
2017-Sep-28 03:31N 43°06' E 004°36'0 0.2
2017-Sep-28 03:01N 43°06' E 004°36'0 0.3
2017-Sep-28 02:31N 43°07' E 004°36'0 0.8
2017-Sep-28 02:00N 43°07' E 004°36'1 2.0
2017-Sep-28 01:31N 43°08' E 004°37'0 0.6
2017-Sep-28 01:00N 43°08' E 004°37'0 0.2
2017-Sep-28 00:31N 43°08' E 004°37'0 0.2
2017-Sep-28 00:01N 43°07' E 004°37'0 0.2
2017-Sep-27 23:31N 43°07' E 004°37'0 0.2
2017-Sep-27 23:00N 43°07' E 004°37'0 0.1
2017-Sep-27 22:30N 43°07' E 004°37'0 0.2
2017-Sep-27 22:00N 43°07' E 004°37'0 0.2
2017-Sep-27 21:31N 43°07' E 004°37'0 0.2
2017-Sep-27 21:00N 43°07' E 004°38'0 0.1
2017-Sep-27 20:31N 43°07' E 004°38'0 0.3
2017-Sep-27 20:01N 43°07' E 004°37'3 5.9
2017-Sep-27 19:30N 43°06' E 004°33'2 3.2
2017-Sep-27 19:01N 43°06' E 004°31'0 0.2
2017-Sep-27 18:30N 43°06' E 004°31'0 0.2
2017-Sep-27 18:00N 43°06' E 004°32'0 0.2
2017-Sep-27 17:30N 43°06' E 004°32'0 0.2
2017-Sep-27 17:00N 43°06' E 004°32'0 0.2
2017-Sep-27 16:31N 43°06' E 004°32'0 0.2
2017-Sep-27 16:00N 43°06' E 004°32'0 0.1
2017-Sep-27 15:31N 43°06' E 004°32'0 0.1
2017-Sep-27 15:00N 43°06' E 004°32'0 0.2
2017-Sep-27 14:31N 43°06' E 004°32'0 0.1
2017-Sep-27 14:00N 43°06' E 004°32'0 0.0
2017-Sep-27 13:31N 43°06' E 004°32'0 0.1
2017-Sep-27 13:00N 43°06' E 004°32'0 0.4
2017-Sep-27 12:31N 43°06' E 004°32'0 0.1
2017-Sep-27 12:00N 43°06' E 004°33'0 0.2
2017-Sep-27 11:31N 43°06' E 004°33'0 0.1
2017-Sep-27 11:01N 43°06' E 004°33'0 0.1
2017-Sep-27 10:30N 43°06' E 004°33'0 0.1
2017-Sep-27 10:01N 43°06' E 004°33'0 0.2
2017-Sep-27 09:31N 43°06' E 004°33'0 0.2
2017-Sep-27 09:01N 43°06' E 004°33'0 0.3
2017-Sep-27 08:31N 43°06' E 004°33'0 0.4
2017-Sep-27 08:01N 43°06' E 004°34'0 0.7
2017-Sep-27 07:30N 43°06' E 004°34'1 1.4
2017-Sep-27 07:00N 43°06' E 004°35'1910.5
2017-Sep-27 05:10N 43°11' E 005°01'411.5
2017-Sep-27 04:51N 43°15' E 005°00'512.0
2017-Sep-27 04:28N 43°19' E 004°59'  
2017-Sep-24 18:55N 43°24' E 004°54'2 5.4
2017-Sep-24 18:30N 43°23' E 004°57'2 4.0
2017-Sep-24 18:00N 43°22' E 004°59'0 0.0
2017-Sep-24 17:30N 43°22' E 004°59'0 0.0
2017-Sep-24 17:00N 43°22' E 004°59'0 0.0
2017-Sep-24 16:30N 43°22' E 004°59'0 0.0
2017-Sep-24 16:00N 43°22' E 004°59'0 0.0
2017-Sep-24 15:30N 43°22' E 004°59'0 0.0
2017-Sep-24 15:00N 43°22' E 004°59'0 0.0
2017-Sep-24 14:30N 43°22' E 004°59'0 0.0
2017-Sep-24 14:00N 43°22' E 004°59'0 0.0
2017-Sep-24 13:30N 43°22' E 004°59'0 0.0
2017-Sep-24 13:00N 43°22' E 004°59'0 0.0
2017-Sep-24 12:30N 43°22' E 004°59'0 0.0
2017-Sep-24 12:00N 43°22' E 004°59'0 0.0
2017-Sep-24 11:30N 43°22' E 004°59'0 0.0
2017-Sep-24 11:00N 43°22' E 004°59'0 0.0
2017-Sep-24 10:30N 43°22' E 004°59'0 0.0
2017-Sep-24 10:00N 43°22' E 004°59'0 0.0
2017-Sep-24 09:30N 43°22' E 004°59'0 0.1
2017-Sep-24 09:00N 43°22' E 004°59'0 0.1
2017-Sep-24 08:30N 43°22' E 004°59'0 0.1
2017-Sep-24 08:00N 43°22' E 004°59'0 0.1
2017-Sep-24 07:30N 43°22' E 004°59'0 0.1
2017-Sep-24 07:00N 43°22' E 004°59'0 0.1
2017-Sep-24 06:30N 43°22' E 004°59'0 0.1
2017-Sep-24 06:00N 43°22' E 004°59'0 0.0
2017-Sep-24 05:30N 43°22' E 004°59'0 0.0
2017-Sep-24 04:57N 43°22' E 004°59'0 0.1
2017-Sep-24 04:30N 43°22' E 004°59'0 0.0
2017-Sep-24 04:00N 43°22' E 004°59'0 0.1
2017-Sep-24 03:30N 43°22' E 004°59'0 0.0
2017-Sep-24 03:00N 43°22' E 004°59'0 0.0
2017-Sep-24 02:30N 43°22' E 004°59'0 0.1
2017-Sep-24 02:00N 43°22' E 004°59'0 0.0
2017-Sep-24 01:30N 43°22' E 004°59'0 0.0
2017-Sep-24 01:00N 43°22' E 004°59'0 0.0
2017-Sep-24 00:30N 43°22' E 004°59'0 0.0
2017-Sep-24 00:00N 43°22' E 004°59'0 0.0
2017-Sep-23 23:30N 43°22' E 004°59'0 0.0
2017-Sep-23 23:00N 43°22' E 004°59'0 0.0
2017-Sep-23 22:30N 43°22' E 004°59'0 0.0
2017-Sep-23 22:00N 43°22' E 004°59'0 0.0
2017-Sep-23 21:27N 43°22' E 004°59'0 0.2
2017-Sep-23 21:00N 43°22' E 004°59'2 4.0
2017-Sep-23 20:30N 43°20' E 004°59'3 5.8
2017-Sep-23 20:01N 43°18' E 005°00'53010.9
2017-Sep-21 19:34N 36°23' W 002°10'111.1
2017-Sep-21 19:26N 36°22' W 002°11'1211.3
2017-Sep-21 18:20N 36°21' W 002°27'411.1
2017-Sep-21 18:00N 36°20' W 002°31'13111.7
2017-Sep-21 06:49N 36°05' W 005°13'611.2
2017-Sep-21 06:16N 36°04' W 005°20'2 9.3
2017-Sep-21 06:00N 36°05' W 005°23'1 0.6
2017-Sep-21 04:42N 36°05' W 005°24'0 0.1
2017-Sep-21 03:36N 36°05' W 005°24'0 0.2
2017-Sep-21 03:30N 36°05' W 005°24'0 0.1
2017-Sep-21 02:57N 36°05' W 005°24'0 0.0
2017-Sep-21 02:30N 36°05' W 005°24'0 0.1
2017-Sep-21 02:00N 36°05' W 005°24'0 0.0
2017-Sep-21 01:30N 36°05' W 005°24'0 0.3
2017-Sep-21 01:00N 36°05' W 005°24'0 0.0
2017-Sep-21 00:27N 36°05' W 005°24'0 0.0
2017-Sep-21 00:00N 36°05' W 005°24'0 0.0
2017-Sep-20 23:30N 36°05' W 005°24'0 0.1
2017-Sep-20 22:56N 36°05' W 005°24'0 0.0
2017-Sep-20 21:36N 36°05' W 005°24'0 0.0
2017-Sep-20 21:24N 36°05' W 005°24'0 0.1
2017-Sep-20 19:57N 36°05' W 005°24'0 0.1
2017-Sep-20 19:30N 36°05' W 005°24'0 0.0
2017-Sep-20 04:42N 36°05' W 005°24'0 0.1
2017-Sep-20 04:30N 36°05' W 005°24'0 0.1
2017-Sep-20 03:48N 36°05' W 005°24'0 0.3
2017-Sep-20 03:30N 36°05' W 005°24'0 0.1
2017-Sep-20 02:42N 36°05' W 005°24'0 0.2
2017-Sep-20 02:30N 36°05' W 005°24'0 0.0
2017-Sep-20 02:00N 36°05' W 005°24'0 0.1
2017-Sep-20 01:30N 36°05' W 005°24'0 0.0
2017-Sep-20 01:00N 36°05' W 005°24'0 0.1
2017-Sep-20 00:30N 36°05' W 005°24'0 0.2
2017-Sep-20 00:00N 36°05' W 005°24'0 0.0
2017-Sep-19 20:01N 36°05' W 005°24'0 1.1
2017-Sep-19 20:00N 36°05' W 005°24'2 4.5
2017-Sep-19 19:30N 36°04' W 005°22'1 1.0
2017-Sep-19 19:00N 36°03' W 005°22'1 1.2
2017-Sep-19 18:30N 36°03' W 005°22'4 7.2
2017-Sep-19 17:59N 35°60' W 005°23'713.9
2017-Sep-19 17:30N 35°57' W 005°31'  
Track history (hours):
 
Tides and Currents Weather Stations Pressure Air Temp Water Temp Dewpoint Dewpoint Depression Visibility Wind Speed Wind Dir Waves Ship Positions

Uacc Ibn Sina

Last reported at 2017-Sep-28 18:49 UTC. Time now 2017-Oct-20 12:37 UTC.
Position N 42°14' E 005°24'.
Warning: this ship's position is 21 days out of date.

Length 228 m; draft 13.6 m.

Type: Ship (hazmat cat A). MMSI: 249497000.

Date/timePositionNaut miles runAvg speedWind from/ knotsBaromVisibWave heightAir tempDewpointWater temp
2017-Sep-28 18:49N 42°14' E 005°24'411.2
2017-Sep-28 18:30N 42°17' E 005°21'611.3
2017-Sep-28 18:00N 42°22' E 005°17'611.5
2017-Sep-28 17:31N 42°27' E 005°13'611.2
2017-Sep-28 16:56N 42°32' E 005°08'511.3
2017-Sep-28 16:30N 42°36' E 005°05'611.3
2017-Sep-28 16:01N 42°41' E 005°00'611.1
2017-Sep-28 15:31N 42°46' E 004°56'611.0
2017-Sep-28 15:01N 42°50' E 004°52'510.8
2017-Sep-28 14:31N 42°55' E 004°49'510.9
2017-Sep-28 14:01N 42°60' E 004°45'611.1
2017-Sep-28 13:30N 43°04' E 004°41'4 7.6
2017-Sep-28 13:01N 43°07' E 004°38'0 0.4
2017-Sep-28 12:30N 43°07' E 004°38'0 0.0
2017-Sep-28 12:01N 43°07' E 004°38'0 0.0
2017-Sep-28 11:31N 43°07' E 004°38'0 0.1
2017-Sep-28 11:00N 43°07' E 004°38'0 0.1
2017-Sep-28 10:31N 43°07' E 004°38'0 0.2
2017-Sep-28 10:00N 43°07' E 004°38'0 0.2
2017-Sep-28 09:30N 43°07' E 004°38'0 0.2
2017-Sep-28 09:01N 43°07' E 004°38'0 0.6
2017-Sep-28 08:30N 43°07' E 004°37'2 3.2
2017-Sep-28 08:01N 43°06' E 004°36'0 0.3
2017-Sep-28 07:30N 43°06' E 004°36'0 0.2
2017-Sep-28 07:01N 43°06' E 004°36'0 0.1
2017-Sep-28 06:30N 43°07' E 004°36'0 0.1
2017-Sep-28 06:00N 43°07' E 004°36'0 0.1
2017-Sep-28 05:30N 43°07' E 004°36'0 0.1
2017-Sep-28 05:01N 43°06' E 004°36'0 0.1
2017-Sep-28 04:31N 43°06' E 004°36'0 0.1
2017-Sep-28 04:01N 43°06' E 004°36'0 0.1
2017-Sep-28 03:31N 43°06' E 004°36'0 0.2
2017-Sep-28 03:01N 43°06' E 004°36'0 0.3
2017-Sep-28 02:31N 43°07' E 004°36'0 0.8
2017-Sep-28 02:00N 43°07' E 004°36'1 2.0
2017-Sep-28 01:31N 43°08' E 004°37'0 0.6
2017-Sep-28 01:00N 43°08' E 004°37'0 0.2
2017-Sep-28 00:31N 43°08' E 004°37'0 0.2
2017-Sep-28 00:01N 43°07' E 004°37'0 0.2
2017-Sep-27 23:31N 43°07' E 004°37'0 0.2
2017-Sep-27 23:00N 43°07' E 004°37'0 0.1
2017-Sep-27 22:30N 43°07' E 004°37'0 0.2
2017-Sep-27 22:00N 43°07' E 004°37'0 0.2
2017-Sep-27 21:31N 43°07' E 004°37'0 0.2
2017-Sep-27 21:00N 43°07' E 004°38'0 0.1
2017-Sep-27 20:31N 43°07' E 004°38'0 0.3
2017-Sep-27 20:01N 43°07' E 004°37'3 5.9
2017-Sep-27 19:30N 43°06' E 004°33'2 3.2
2017-Sep-27 19:01N 43°06' E 004°31'0 0.2
2017-Sep-27 18:30N 43°06' E 004°31'0 0.2
2017-Sep-27 18:00N 43°06' E 004°32'0 0.2
2017-Sep-27 17:30N 43°06' E 004°32'0 0.2
2017-Sep-27 17:00N 43°06' E 004°32'0 0.2
2017-Sep-27 16:31N 43°06' E 004°32'0 0.2
2017-Sep-27 16:00N 43°06' E 004°32'0 0.1
2017-Sep-27 15:31N 43°06' E 004°32'0 0.1
2017-Sep-27 15:00N 43°06' E 004°32'0 0.2
2017-Sep-27 14:31N 43°06' E 004°32'0 0.1
2017-Sep-27 14:00N 43°06' E 004°32'0 0.0
2017-Sep-27 13:31N 43°06' E 004°32'0 0.1
2017-Sep-27 13:00N 43°06' E 004°32'0 0.4
2017-Sep-27 12:31N 43°06' E 004°32'0 0.1
2017-Sep-27 12:00N 43°06' E 004°33'0 0.2
2017-Sep-27 11:31N 43°06' E 004°33'0 0.1
2017-Sep-27 11:01N 43°06' E 004°33'0 0.1
2017-Sep-27 10:30N 43°06' E 004°33'0 0.1
2017-Sep-27 10:01N 43°06' E 004°33'0 0.2
2017-Sep-27 09:31N 43°06' E 004°33'0 0.2
2017-Sep-27 09:01N 43°06' E 004°33'0 0.3
2017-Sep-27 08:31N 43°06' E 004°33'0 0.4
2017-Sep-27 08:01N 43°06' E 004°34'0 0.7
2017-Sep-27 07:30N 43°06' E 004°34'1 1.4
2017-Sep-27 07:00N 43°06' E 004°35'1910.5
2017-Sep-27 05:10N 43°11' E 005°01'411.5
2017-Sep-27 04:51N 43°15' E 005°00'512.0
2017-Sep-27 04:28N 43°19' E 004°59'  
2017-Sep-24 18:55N 43°24' E 004°54'2 5.4
2017-Sep-24 18:30N 43°23' E 004°57'2 4.0
2017-Sep-24 18:00N 43°22' E 004°59'0 0.0
2017-Sep-24 17:30N 43°22' E 004°59'0 0.0
2017-Sep-24 17:00N 43°22' E 004°59'0 0.0
2017-Sep-24 16:30N 43°22' E 004°59'0 0.0
2017-Sep-24 16:00N 43°22' E 004°59'0 0.0
2017-Sep-24 15:30N 43°22' E 004°59'0 0.0
2017-Sep-24 15:00N 43°22' E 004°59'0 0.0
2017-Sep-24 14:30N 43°22' E 004°59'0 0.0
2017-Sep-24 14:00N 43°22' E 004°59'0 0.0
2017-Sep-24 13:30N 43°22' E 004°59'0 0.0
2017-Sep-24 13:00N 43°22' E 004°59'0 0.0
2017-Sep-24 12:30N 43°22' E 004°59'0 0.0
2017-Sep-24 12:00N 43°22' E 004°59'0 0.0
2017-Sep-24 11:30N 43°22' E 004°59'0 0.0
2017-Sep-24 11:00N 43°22' E 004°59'0 0.0
2017-Sep-24 10:30N 43°22' E 004°59'0 0.0
2017-Sep-24 10:00N 43°22' E 004°59'0 0.0
2017-Sep-24 09:30N 43°22' E 004°59'0 0.1
2017-Sep-24 09:00N 43°22' E 004°59'0 0.1
2017-Sep-24 08:30N 43°22' E 004°59'0 0.1
2017-Sep-24 08:00N 43°22' E 004°59'0 0.1
2017-Sep-24 07:30N 43°22' E 004°59'0 0.1
2017-Sep-24 07:00N 43°22' E 004°59'0 0.1
2017-Sep-24 06:30N 43°22' E 004°59'0 0.1
2017-Sep-24 06:00N 43°22' E 004°59'0 0.0
2017-Sep-24 05:30N 43°22' E 004°59'0 0.0
2017-Sep-24 04:57N 43°22' E 004°59'0 0.1
2017-Sep-24 04:30N 43°22' E 004°59'0 0.0
2017-Sep-24 04:00N 43°22' E 004°59'0 0.1
2017-Sep-24 03:30N 43°22' E 004°59'0 0.0
2017-Sep-24 03:00N 43°22' E 004°59'0 0.0
2017-Sep-24 02:30N 43°22' E 004°59'0 0.1
2017-Sep-24 02:00N 43°22' E 004°59'0 0.0
2017-Sep-24 01:30N 43°22' E 004°59'0 0.0
2017-Sep-24 01:00N 43°22' E 004°59'0 0.0
2017-Sep-24 00:30N 43°22' E 004°59'0 0.0
2017-Sep-24 00:00N 43°22' E 004°59'0 0.0
2017-Sep-23 23:30N 43°22' E 004°59'0 0.0
2017-Sep-23 23:00N 43°22' E 004°59'0 0.0
2017-Sep-23 22:30N 43°22' E 004°59'0 0.0
2017-Sep-23 22:00N 43°22' E 004°59'0 0.0
2017-Sep-23 21:27N 43°22' E 004°59'0 0.2
2017-Sep-23 21:00N 43°22' E 004°59'2 4.0
2017-Sep-23 20:30N 43°20' E 004°59'3 5.8
2017-Sep-23 20:01N 43°18' E 005°00'53010.9
2017-Sep-21 19:34N 36°23' W 002°10'111.1
2017-Sep-21 19:26N 36°22' W 002°11'1211.3
2017-Sep-21 18:20N 36°21' W 002°27'411.1
2017-Sep-21 18:00N 36°20' W 002°31'13111.7
2017-Sep-21 06:49N 36°05' W 005°13'611.2
2017-Sep-21 06:16N 36°04' W 005°20'2 9.3
2017-Sep-21 06:00N 36°05' W 005°23'1 0.6
2017-Sep-21 04:42N 36°05' W 005°24'0 0.1
2017-Sep-21 03:36N 36°05' W 005°24'0 0.2
2017-Sep-21 03:30N 36°05' W 005°24'0 0.1
2017-Sep-21 02:57N 36°05' W 005°24'0 0.0
2017-Sep-21 02:30N 36°05' W 005°24'0 0.1
2017-Sep-21 02:00N 36°05' W 005°24'0 0.0
2017-Sep-21 01:30N 36°05' W 005°24'0 0.3
2017-Sep-21 01:00N 36°05' W 005°24'0 0.0
2017-Sep-21 00:27N 36°05' W 005°24'0 0.0
2017-Sep-21 00:00N 36°05' W 005°24'0 0.0
2017-Sep-20 23:30N 36°05' W 005°24'0 0.1
2017-Sep-20 22:56N 36°05' W 005°24'0 0.0
2017-Sep-20 21:36N 36°05' W 005°24'0 0.0
2017-Sep-20 21:24N 36°05' W 005°24'0 0.1
2017-Sep-20 19:57N 36°05' W 005°24'0 0.1
2017-Sep-20 19:30N 36°05' W 005°24'0 0.0
2017-Sep-20 04:42N 36°05' W 005°24'0 0.1
2017-Sep-20 04:30N 36°05' W 005°24'0 0.1
2017-Sep-20 03:48N 36°05' W 005°24'0 0.3
2017-Sep-20 03:30N 36°05' W 005°24'0 0.1
2017-Sep-20 02:42N 36°05' W 005°24'0 0.2
2017-Sep-20 02:30N 36°05' W 005°24'0 0.0
2017-Sep-20 02:00N 36°05' W 005°24'0 0.1
2017-Sep-20 01:30N 36°05' W 005°24'0 0.0
2017-Sep-20 01:00N 36°05' W 005°24'0 0.1
2017-Sep-20 00:30N 36°05' W 005°24'0 0.2
2017-Sep-20 00:00N 36°05' W 005°24'0 0.0
2017-Sep-19 20:01N 36°05' W 005°24'0 1.1
2017-Sep-19 20:00N 36°05' W 005°24'2 4.5
2017-Sep-19 19:30N 36°04' W 005°22'1 1.0
2017-Sep-19 19:00N 36°03' W 005°22'1 1.2
2017-Sep-19 18:30N 36°03' W 005°22'4 7.2
2017-Sep-19 17:59N 35°60' W 005°23'713.9
2017-Sep-19 17:30N 35°57' W 005°31'  

Dump ship's entire track history